KEKO

Elko Regional Airport

Elko, Nevada, USA
METAR KEKO 162156Z AUTO 06007KT 10SM CLR 06/M07 A3013 RMK AO2 SLP218 T00561072
Observed Flight Rules
Dec-16 @ 21:56 UTC (36 minutes ago) Visual Flight Rules
Wind Visibility Clouds
60° at 7 knots 10 miles
  • Clear skies
Temperatures Readings
Current 6°C / 43°F
Dewpoint -7°C / 19°F
Humidity 39%
Altimeter 30.13" Hg
Pressure 1021.8 hPa
Elevation 1547
METAR KEKO 162156Z AUTO 06007KT 10SM CLR 06/M07 A3013 RMK AO2 SLP218 T00561072
Observed Flight Rules
Dec-16 @ 21:56 UTC
(36 minutes ago)
VFR
Wind Visibility
60° at 7 knots 10 miles
Clouds
  • Clear skies
Temperature Dewpoint
6°C / 43°F -7°C / 19°F
Humidity Altimeter Pressure
39% 30.13" Hg 1021.8 hPa